Time;durP1;ratioP1;P1;durP2;ratioP2;P2;SDS_P1;SDS_P2;PMS_P1;PMS_P2;Temp;Humidity;BMP_temperature;BMP_pressure;BME280_temperature;BME280_humidity;BME280_pressure;Samples;Min_cycle;Max_cycle;Signal;HPM_P1;HPM_P2
2023/10/14 00:01:10;;;;;;;0.30;0.00;;;13.70;99.90;;;;;;4947867;28;20034;-90
2023/10/14 00:03:41;;;;;;;1.35;0.10;;;13.80;99.90;;;;;;4959077;28;20467;-86
2023/10/14 00:06:07;;;;;;;0.20;0.00;;;13.70;99.90;;;;;;4935463;28;20393;-92
2023/10/14 00:08:34;;;;;;;0.60;0.00;;;13.80;99.90;;;;;;4958943;28;20451;-91
2023/10/14 00:11:06;;;;;;;0.38;0.00;;;13.70;99.90;;;;;;4967085;28;20037;-85
2023/10/14 00:13:41;;;;;;;0.32;0.10;;;13.80;99.90;;;;;;4973315;28;20023;-91
2023/10/14 00:16:24;;;;;;;0.55;0.10;;;13.80;99.90;;;;;;4957654;28;20034;-86
2023/10/14 00:18:50;;;;;;;0.30;0.00;;;13.70;99.90;;;;;;4933783;28;20027;-88
2023/10/14 00:21:16;;;;;;;0.88;0.10;;;13.70;99.90;;;;;;4949008;28;20595;-88
2023/10/14 00:23:42;;;;;;;0.40;0.08;;;13.70;99.90;;;;;;4968193;28;20499;-86
2023/10/14 00:26:20;;;;;;;0.52;0.10;;;13.70;99.90;;;;;;4951987;28;20047;-86
2023/10/14 00:28:54;;;;;;;0.55;0.10;;;13.70;99.90;;;;;;4934781;28;20514;-87
2023/10/14 00:31:23;;;;;;;0.55;0.00;;;13.70;99.90;;;;;;4966473;28;20059;-86
2023/10/14 00:33:53;;;;;;;1.27;0.10;;;13.70;99.90;;;;;;4956053;28;20463;-87
2023/10/14 00:36:21;;;;;;;0.55;0.10;;;13.70;99.90;;;;;;4973941;28;20030;-86
2023/10/14 00:38:55;;;;;;;3.08;0.10;;;13.70;99.90;;;;;;4947267;28;20027;-86
2023/10/14 00:41:27;;;;;;;0.77;0.10;;;13.70;99.90;;;;;;4947755;28;20026;-88
2023/10/14 00:43:56;;;;;;;0.93;0.10;;;13.70;99.90;;;;;;4933980;28;20027;-87
2023/10/14 00:46:23;;;;;;;1.05;0.10;;;13.70;99.90;;;;;;4964044;28;20035;-91
2023/10/14 00:48:58;;;;;;;1.25;0.00;;;13.70;99.90;;;;;;4950610;28;20042;-93
2023/10/14 00:51:26;;;;;;;0.93;0.00;;;13.70;99.90;;;;;;4951111;28;20038;-87
2023/10/14 00:53:52;;;;;;;0.88;0.10;;;13.70;99.90;;;;;;4952772;28;20027;-88
2023/10/14 00:56:20;;;;;;;0.98;0.00;;;13.70;99.90;;;;;;4949121;28;20050;-91
2023/10/14 00:58:51;;;;;;;1.92;0.20;;;13.70;99.90;;;;;;4965484;28;20039;-87
2023/10/14 01:01:21;;;;;;;2.88;0.40;;;13.60;99.90;;;;;;4947122;28;20082;-89
2023/10/14 01:03:49;;;;;;;;;;;13.70;99.90;;;;;;4951498;28;20023;-85
2023/10/14 01:08:43;;;;;;;2.05;0.10;;;13.70;99.90;;;;;;4943938;28;20027;-88
2023/10/14 01:11:09;;;;;;;0.98;0.10;;;13.70;99.90;;;;;;4966330;28;20157;-91
2023/10/14 01:13:36;;;;;;;1.42;0.10;;;13.70;99.90;;;;;;4953001;28;20035;-91
2023/10/14 01:16:08;;;;;;;3.40;0.20;;;13.70;99.90;;;;;;4950250;28;20128;-88
2023/10/14 01:18:35;;;;;;;2.45;0.15;;;13.60;99.90;;;;;;4949214;28;20027;-87
2023/10/14 01:21:01;;;;;;;2.92;0.20;;;13.70;99.90;;;;;;4949159;28;20042;-89
2023/10/14 01:23:26;;;;;;;1.83;0.20;;;13.60;99.90;;;;;;4968435;28;20026;-86
2023/10/14 01:25:52;;;;;;;1.17;0.10;;;13.30;99.90;;;;;;4962963;28;20031;-86
2023/10/14 01:28:29;;;;;;;3.20;0.15;;;13.20;99.90;;;;;;4955639;28;20818;-88
2023/10/14 01:33:55;;;;;;;4.25;0.10;;;13.20;99.90;;;;;;4951393;28;20070;-92
2023/10/14 01:36:24;;;;;;;1.75;0.10;;;13.30;99.90;;;;;;4935392;28;20023;-86
2023/10/14 01:38:58;;;;;;;4.03;0.20;;;13.30;99.90;;;;;;4938443;28;20282;-86
2023/10/14 01:41:25;;;;;;;3.05;0.20;;;13.30;99.90;;;;;;4933349;28;20072;-86
2023/10/14 01:43:52;;;;;;;1.75;0.10;;;13.20;99.90;;;;;;4933917;28;20030;-88
2023/10/14 01:46:18;;;;;;;2.13;0.20;;;13.20;99.90;;;;;;4953519;28;20117;-91
2023/10/14 01:48:45;;;;;;;1.98;0.30;;;13.00;99.90;;;;;;4935547;28;20038;-90
2023/10/14 01:51:11;;;;;;;3.55;0.20;;;13.00;99.90;;;;;;4981055;28;20023;-92
2023/10/14 01:53:38;;;;;;;2.53;0.32;;;12.90;99.90;;;;;;4948442;28;20031;-89
2023/10/14 01:56:06;;;;;;;1.58;0.20;;;12.90;99.90;;;;;;4935361;28;20121;-91
2023/10/14 01:58:36;;;;;;;5.25;0.20;;;12.90;99.90;;;;;;4955066;28;20031;-88
2023/10/14 02:03:50;;;;;;;2.22;0.20;;;12.90;99.90;;;;;;4976356;28;20566;-88
2023/10/14 02:06:25;;;;;;;3.60;0.30;;;12.90;99.90;;;;;;4968135;28;20038;-89
2023/10/14 02:08:52;;;;;;;6.63;0.30;;;12.90;99.90;;;;;;4958077;28;20054;-89
2023/10/14 02:11:26;;;;;;;4.43;0.25;;;12.90;99.90;;;;;;4952418;28;20031;-93
2023/10/14 02:13:52;;;;;;;2.72;0.30;;;12.90;99.90;;;;;;4953469;28;20173;-87
2023/10/14 02:16:24;;;;;;;5.22;0.35;;;12.80;99.90;;;;;;4955422;28;20502;-90
2023/10/14 02:18:50;;;;;;;9.75;0.40;;;12.80;99.90;;;;;;4955208;28;20159;-89
2023/10/14 02:21:19;;;;;;;4.20;0.30;;;12.70;99.90;;;;;;4954180;28;20497;-87
2023/10/14 02:23:48;;;;;;;5.35;0.30;;;12.70;99.90;;;;;;4946156;28;20027;-90
2023/10/14 02:26:32;;;;;;;4.65;0.30;;;12.70;99.90;;;;;;4933787;28;20177;-89
2023/10/14 02:28:58;;;;;;;6.10;0.30;;;12.70;99.90;;;;;;4970046;28;20030;-89
2023/10/14 02:31:29;;;;;;;3.78;0.30;;;12.70;99.90;;;;;;4966774;28;20036;-91
2023/10/14 02:34:08;;;;;;;5.93;0.43;;;12.70;99.90;;;;;;4955954;28;20055;-87
2023/10/14 02:36:41;;;;;;;6.88;0.65;;;12.70;99.90;;;;;;4963682;28;20042;-89
2023/10/14 02:39:12;;;;;;;4.75;0.40;;;12.60;99.90;;;;;;4952175;28;20030;-89
2023/10/14 02:41:40;;;;;;;4.97;0.68;;;12.60;99.90;;;;;;4955065;28;20137;-92
2023/10/14 02:46:42;;;;;;;8.15;0.45;;;12.70;99.90;;;;;;4950556;28;20043;-93
2023/10/14 02:49:13;;;;;;;4.35;0.30;;;12.60;99.90;;;;;;4951495;28;20042;-89
2023/10/14 02:51:43;;;;;;;5.75;0.50;;;12.60;99.90;;;;;;4954267;28;20031;-90
2023/10/14 02:54:26;;;;;;;4.85;0.35;;;12.60;99.90;;;;;;4954193;28;20027;-90
2023/10/14 02:57:00;;;;;;;5.43;0.50;;;12.50;99.90;;;;;;4931720;28;20294;-92
2023/10/14 03:02:25;;;;;;;7.03;0.40;;;12.50;99.90;;;;;;4950954;28;20023;-90
2023/10/14 03:04:55;;;;;;;5.57;0.77;;;12.40;99.90;;;;;;4931394;28;21192;-89
2023/10/14 03:07:30;;;;;;;7.47;0.47;;;12.30;99.90;;;;;;4964371;28;20409;-87
2023/10/14 03:12:51;;;;;;;7.38;0.75;;;12.10;99.90;;;;;;4954710;28;20042;-90
2023/10/14 03:15:20;;;;;;;9.32;0.40;;;12.10;99.90;;;;;;4951143;28;20119;-88
2023/10/14 03:17:56;;;;;;;8.77;0.40;;;12.10;99.90;;;;;;4953786;28;20030;-91
2023/10/14 03:22:57;;;;;;;6.10;0.70;;;12.00;99.90;;;;;;4946705;28;20523;-89
2023/10/14 03:25:24;;;;;;;4.35;0.40;;;11.90;99.90;;;;;;4966561;28;20042;-91
2023/10/14 03:27:58;;;;;;;7.22;0.35;;;11.90;99.90;;;;;;4952768;28;20623;-88
2023/10/14 03:30:24;;;;;;;4.35;0.40;;;11.80;99.90;;;;;;4966986;28;20121;-90
2023/10/14 03:32:50;;;;;;;8.32;0.50;;;11.70;99.90;;;;;;4956615;28;20494;-89
2023/10/14 03:35:20;;;;;;;4.93;0.68;;;11.70;99.90;;;;;;4950655;28;20023;-88
2023/10/14 03:38:03;;;;;;;6.32;0.38;;;11.60;99.90;;;;;;4959209;28;20018;-88
2023/10/14 03:43:10;;;;;;;3.90;0.30;;;11.50;99.90;;;;;;4952670;28;20034;-89
2023/10/14 03:45:48;;;;;;;4.60;0.40;;;11.60;99.90;;;;;;4952131;28;20551;-89
2023/10/14 03:48:14;;;;;;;5.57;0.40;;;11.60;99.90;;;;;;4943221;28;20027;-88
2023/10/14 03:50:40;;;;;;;4.88;0.30;;;11.50;99.90;;;;;;4953261;28;20046;-87
2023/10/14 03:53:06;;;;;;;6.45;0.40;;;11.50;99.90;;;;;;4933758;28;20484;-90
2023/10/14 03:55:32;;;;;;;5.85;0.40;;;11.50;99.90;;;;;;4948369;28;20079;-88
2023/10/14 03:58:04;;;;;;;5.85;0.43;;;11.50;99.90;;;;;;4967979;28;20100;-89
2023/10/14 04:00:39;;;;;;;7.75;0.63;;;11.40;99.90;;;;;;4979091;28;20031;-88
2023/10/14 04:03:13;;;;;;;6.45;0.50;;;11.40;99.90;;;;;;4947307;28;20472;-90
2023/10/14 04:05:52;;;;;;;5.25;0.40;;;11.40;99.90;;;;;;4952347;28;20126;-90
2023/10/14 04:08:25;;;;;;;8.82;1.05;;;11.40;99.90;;;;;;4930992;28;20101;-88
2023/10/14 04:10:55;;;;;;;3.25;0.20;;;11.30;99.90;;;;;;4948527;28;20038;-89
2023/10/14 04:13:21;;;;;;;5.78;0.32;;;11.30;99.90;;;;;;4935544;28;20034;-89
2023/10/14 04:15:53;;;;;;;10.27;0.60;;;11.30;99.90;;;;;;4932797;28;20582;-87
2023/10/14 04:18:24;;;;;;;6.07;0.82;;;11.20;99.90;;;;;;4950746;28;20030;-91
2023/10/14 04:21:13;;;;;;;7.40;0.40;;;11.20;99.90;;;;;;4932117;28;20050;-89
2023/10/14 04:26:34;;;;;;;9.30;0.40;;;11.20;99.90;;;;;;4902028;29;20083;-87
2023/10/14 04:29:02;;;;;;;5.15;0.85;;;11.20;99.90;;;;;;4899768;29;20036;-89
2023/10/14 04:31:39;;;;;;;5.45;0.40;;;11.10;99.90;;;;;;4895835;29;20548;-90
2023/10/14 04:34:14;;;;;;;7.05;0.55;;;11.10;99.90;;;;;;4899290;29;20088;-89
2023/10/14 04:36:53;;;;;;;7.10;0.43;;;11.10;99.90;;;;;;4898098;29;20036;-87
2023/10/14 04:39:26;;;;;;;8.30;0.40;;;11.00;99.90;;;;;;4901869;29;20032;-89
2023/10/14 04:41:55;;;;;;;8.05;0.40;;;10.90;99.90;;;;;;4897169;29;20317;-88
2023/10/14 04:44:23;;;;;;;4.40;0.32;;;10.90;99.90;;;;;;4895886;29;20059;-89
2023/10/14 04:47:01;;;;;;;6.90;0.60;;;10.90;99.90;;;;;;4896053;29;20040;-88
2023/10/14 04:49:35;;;;;;;7.38;0.50;;;10.90;99.90;;;;;;4899387;29;20028;-88
2023/10/14 04:52:05;;;;;;;6.20;0.50;;;10.90;99.90;;;;;;4899715;29;20546;-88
2023/10/14 04:54:34;;;;;;;4.65;0.35;;;10.90;99.90;;;;;;4897685;29;20024;-88
2023/10/14 04:57:12;;;;;;;9.23;0.40;;;10.90;99.90;;;;;;4899932;29;20035;-88
2023/10/14 04:59:37;;;;;;;12.43;0.40;;;10.80;99.90;;;;;;4900665;29;20127;-88
2023/10/14 05:02:03;;;;;;;8.38;0.40;;;10.80;99.90;;;;;;4901613;29;20123;-87
2023/10/14 05:04:30;;;;;;;4.97;0.43;;;10.70;99.90;;;;;;4948491;28;20121;-88
2023/10/14 05:07:03;;;;;;;5.85;0.30;;;10.70;99.90;;;;;;4954869;28;20035;-87
2023/10/14 05:09:30;;;;;;;5.57;0.40;;;10.60;99.90;;;;;;4967652;28;20055;-88
2023/10/14 05:12:00;;;;;;;7.20;1.00;;;10.60;99.90;;;;;;4952233;28;20047;-87
2023/10/14 05:14:37;;;;;;;;;;;10.60;99.90;;;;;;4966821;28;20109;-88
2023/10/14 05:17:14;;;;;;;9.52;0.52;;;10.60;99.90;;;;;;4936472;28;19933;-88
2023/10/14 05:19:44;;;;;;;6.47;0.30;;;10.60;99.90;;;;;;4974828;28;20062;-87
2023/10/14 05:22:18;;;;;;;5.47;0.30;;;10.50;99.90;;;;;;4974230;28;20129;-89
2023/10/14 05:24:48;;;;;;;8.82;0.65;;;10.50;99.90;;;;;;4955044;28;20114;-87
2023/10/14 05:27:21;;;;;;;7.30;0.50;;;10.50;99.90;;;;;;4946494;28;20046;-88
2023/10/14 05:29:50;;;;;;;6.10;0.40;;;10.50;99.90;;;;;;4975444;28;20058;-86
2023/10/14 05:32:31;;;;;;;7.57;0.40;;;10.50;99.90;;;;;;4966221;28;20039;-87
2023/10/14 05:34:59;;;;;;;7.85;0.65;;;10.40;99.90;;;;;;4961727;28;20368;-88
2023/10/14 05:37:25;;;;;;;9.55;0.40;;;10.40;99.90;;;;;;4951744;28;20488;-87
2023/10/14 05:39:54;;;;;;;5.85;0.68;;;10.40;99.90;;;;;;4966425;28;20476;-87
2023/10/14 05:42:24;;;;;;;6.43;0.30;;;10.40;99.90;;;;;;4953246;28;20030;-87
2023/10/14 05:45:01;;;;;;;7.63;0.40;;;10.40;99.90;;;;;;4951231;28;20030;-87
2023/10/14 05:47:29;;;;;;;4.55;0.40;;;10.40;99.90;;;;;;4952727;28;20082;-87
2023/10/14 05:49:55;;;;;;;8.45;0.40;;;10.30;99.90;;;;;;4952874;28;20046;-87
2023/10/14 05:52:24;;;;;;;5.55;0.40;;;10.40;99.90;;;;;;4947874;28;20023;-87
2023/10/14 05:54:50;;;;;;;5.75;0.40;;;10.30;99.90;;;;;;4956464;28;20392;-86
2023/10/14 05:57:17;;;;;;;6.22;0.30;;;10.30;99.90;;;;;;4952695;28;20035;-86
2023/10/14 05:59:43;;;;;;;7.53;0.40;;;10.30;99.90;;;;;;4952044;28;20045;-86
2023/10/14 06:02:12;;;;;;;7.72;0.43;;;10.30;99.90;;;;;;4975222;28;20042;-86
2023/10/14 06:04:41;;;;;;;6.18;0.30;;;10.30;99.90;;;;;;4967868;28;20368;-87
2023/10/14 06:07:08;;;;;;;7.55;0.32;;;10.20;99.90;;;;;;4963323;28;20043;-88
2023/10/14 06:09:38;;;;;;;6.68;0.30;;;10.20;99.90;;;;;;4935520;28;20411;-88
2023/10/14 06:12:14;;;;;;;7.35;0.75;;;10.20;99.90;;;;;;4977243;28;20026;-90
2023/10/14 06:14:44;;;;;;;5.75;0.30;;;10.20;99.90;;;;;;4949548;28;20110;-88
2023/10/14 06:17:11;;;;;;;6.75;0.40;;;10.30;99.90;;;;;;4934962;28;20022;-88
2023/10/14 06:19:37;;;;;;;8.45;0.68;;;10.20;99.90;;;;;;4953737;28;20031;-89
2023/10/14 06:22:03;;;;;;;8.43;0.90;;;10.30;99.90;;;;;;4969685;28;20587;-89
2023/10/14 06:24:29;;;;;;;6.40;0.30;;;10.30;99.90;;;;;;4950724;28;20030;-88
2023/10/14 06:27:08;;;;;;;6.55;0.40;;;10.30;99.90;;;;;;4952430;28;20094;-88
2023/10/14 06:29:37;;;;;;;4.72;0.40;;;10.30;99.90;;;;;;4975152;28;20102;-89
2023/10/14 06:32:04;;;;;;;7.05;0.40;;;10.30;99.90;;;;;;4975716;28;20035;-88
2023/10/14 06:34:32;;;;;;;10.70;0.68;;;10.30;99.90;;;;;;4951521;28;20035;-87
2023/10/14 06:37:02;;;;;;;5.80;0.40;;;10.30;99.90;;;;;;4952554;28;20539;-88
2023/10/14 06:39:28;;;;;;;6.90;0.50;;;10.30;99.90;;;;;;4969623;28;20034;-87
2023/10/14 06:41:55;;;;;;;5.47;0.50;;;10.40;99.90;;;;;;4976566;28;20434;-89
2023/10/14 06:44:27;;;;;;;4.72;0.28;;;10.40;99.90;;;;;;4936539;28;20483;-88
2023/10/14 06:46:56;;;;;;;3.63;0.30;;;10.40;99.90;;;;;;4973635;28;20035;-88
2023/10/14 06:49:36;;;;;;;7.25;0.40;;;10.40;99.90;;;;;;4936208;28;20027;-88
2023/10/14 06:52:04;;;;;;;9.10;0.30;;;10.40;99.90;;;;;;4967380;28;20095;-88
2023/10/14 06:54:30;;;;;;;8.68;0.40;;;10.50;99.90;;;;;;4953361;28;20408;-88
2023/10/14 06:56:56;;;;;;;3.35;0.20;;;10.50;99.90;;;;;;4972018;28;20031;-89
2023/10/14 06:59:22;;;;;;;4.57;0.50;;;10.50;99.90;;;;;;4957904;28;20050;-88
2023/10/14 07:01:48;;;;;;;9.32;0.40;;;10.50;99.90;;;;;;4952503;28;20114;-87
2023/10/14 07:04:16;;;;;;;4.68;0.30;;;10.60;99.90;;;;;;4953383;28;20041;-89
2023/10/14 07:06:47;;;;;;;10.05;0.65;;;10.60;99.90;;;;;;4969058;28;20045;-89
2023/10/14 07:09:17;;;;;;;4.93;0.40;;;10.60;99.90;;;;;;4960086;28;20038;-88
2023/10/14 07:11:46;;;;;;;3.78;0.22;;;10.70;99.90;;;;;;4935487;28;20039;-87
2023/10/14 07:14:12;;;;;;;2.90;0.28;;;10.70;99.90;;;;;;4953290;28;20031;-89
2023/10/14 07:16:38;;;;;;;6.53;0.40;;;10.70;99.90;;;;;;4934754;28;20406;-87
2023/10/14 07:19:04;;;;;;;6.13;0.40;;;10.70;99.90;;;;;;4950798;28;20031;-88
2023/10/14 07:21:30;;;;;;;7.80;0.70;;;10.70;99.90;;;;;;4953135;28;20089;-87
2023/10/14 07:23:58;;;;;;;4.35;0.30;;;10.80;99.90;;;;;;4957679;28;20027;-88
2023/10/14 07:26:29;;;;;;;9.98;0.40;;;10.80;99.90;;;;;;4932785;28;20046;-87
2023/10/14 07:28:56;;;;;;;5.13;0.60;;;10.90;99.90;;;;;;4964725;28;20050;-87
2023/10/14 07:31:25;;;;;;;4.45;0.30;;;11.00;99.90;;;;;;4964690;28;20109;-89
2023/10/14 07:33:51;;;;;;;3.15;0.20;;;11.00;99.90;;;;;;4955456;28;20286;-88
2023/10/14 07:36:16;;;;;;;6.32;0.50;;;11.10;99.90;;;;;;4957281;28;20275;-88
2023/10/14 07:38:43;;;;;;;5.18;0.40;;;11.20;99.90;;;;;;4957794;28;20058;-88
2023/10/14 07:41:11;;;;;;;5.72;0.60;;;11.20;99.90;;;;;;4948284;28;20340;-88
2023/10/14 07:43:36;;;;;;;6.63;0.40;;;11.30;99.90;;;;;;4948260;28;20079;-88
2023/10/14 07:46:06;;;;;;;7.25;0.60;;;11.30;99.90;;;;;;4964598;28;20102;-88
2023/10/14 07:48:32;;;;;;;5.75;0.40;;;11.40;99.90;;;;;;4951234;28;20026;-88
2023/10/14 07:50:58;;;;;;;8.52;0.45;;;11.50;99.90;;;;;;4933725;28;20086;-90
2023/10/14 07:53:25;;;;;;;6.25;0.50;;;11.60;99.90;;;;;;4948743;28;20093;-88
2023/10/14 07:55:56;;;;;;;8.77;0.50;;;11.70;99.90;;;;;;4952337;28;20069;-90
2023/10/14 07:58:27;;;;;;;8.10;0.50;;;11.70;99.90;;;;;;4952860;28;20031;-89
2023/10/14 08:00:54;;;;;;;12.20;0.70;;;11.80;99.90;;;;;;4934089;28;20113;-88
2023/10/14 08:03:22;;;;;;;9.93;0.77;;;11.90;99.90;;;;;;4933324;28;20019;-88
2023/10/14 08:05:51;;;;;;;7.80;0.47;;;12.00;99.90;;;;;;4950926;28;20035;-89
2023/10/14 08:08:19;;;;;;;6.07;0.45;;;12.00;99.90;;;;;;4955854;28;20279;-89
2023/10/14 08:10:47;;;;;;;11.63;1.33;;;12.00;99.90;;;;;;4966026;28;20435;-89
2023/10/14 08:13:13;;;;;;;10.65;0.65;;;12.20;99.90;;;;;;4952450;28;20383;-90
2023/10/14 08:15:40;;;;;;;10.52;0.50;;;12.20;99.90;;;;;;4934087;28;20289;-89
2023/10/14 08:18:06;;;;;;;9.32;0.90;;;12.30;99.90;;;;;;4960895;28;20031;-89
2023/10/14 08:20:33;;;;;;;11.18;1.38;;;12.30;99.90;;;;;;4932273;28;20492;-89
2023/10/14 08:22:59;;;;;;;6.45;0.60;;;12.40;99.90;;;;;;4948869;29;20570;-88
2023/10/14 08:25:25;;;;;;;10.85;0.50;;;12.40;99.90;;;;;;4931701;29;20413;-88
2023/10/14 08:27:53;;;;;;;10.73;0.70;;;12.50;99.90;;;;;;4933050;29;20070;-89
2023/10/14 08:30:24;;;;;;;12.45;0.70;;;12.60;99.90;;;;;;4946129;29;20039;-89
2023/10/14 08:32:51;;;;;;;9.68;0.65;;;12.60;99.90;;;;;;4947631;29;20034;-89
2023/10/14 08:35:19;;;;;;;9.93;0.55;;;12.60;99.90;;;;;;4936011;29;20130;-87
2023/10/14 08:37:51;;;;;;;8.15;0.57;;;12.60;99.90;;;;;;4936974;29;20045;-90
2023/10/14 08:40:29;;;;;;;13.95;0.93;;;12.70;99.90;;;;;;4936964;29;20034;-87
2023/10/14 08:42:58;;;;;;;9.13;0.70;;;12.80;99.90;;;;;;4934916;29;20051;-89
2023/10/14 08:45:27;;;;;;;7.30;0.70;;;12.80;99.90;;;;;;4934088;29;20048;-89
2023/10/14 08:47:54;;;;;;;7.75;0.47;;;12.90;99.90;;;;;;4935054;29;20118;-90
2023/10/14 08:50:24;;;;;;;10.90;0.50;;;12.90;99.90;;;;;;4946775;29;20543;-89
2023/10/14 08:52:53;;;;;;;7.18;0.52;;;13.10;99.90;;;;;;4950638;29;20023;-89
2023/10/14 08:55:20;;;;;;;10.85;1.17;;;13.20;99.90;;;;;;4935750;29;20031;-89
2023/10/14 08:57:50;;;;;;;11.10;0.73;;;13.20;99.90;;;;;;4936401;29;20058;-88
2023/10/14 09:00:20;;;;;;;8.82;0.68;;;13.20;99.90;;;;;;4933454;29;20031;-89
2023/10/14 09:02:53;;;;;;;8.00;0.50;;;13.20;99.90;;;;;;4936489;29;20035;-90
2023/10/14 09:05:19;;;;;;;12.50;0.50;;;13.30;99.90;;;;;;4950283;29;20082;-89
2023/10/14 09:07:48;;;;;;;12.77;0.70;;;13.30;99.90;;;;;;4918736;29;20101;-89
2023/10/14 09:10:19;;;;;;;7.07;0.45;;;13.40;99.90;;;;;;4934251;29;20061;-89
2023/10/14 09:12:58;;;;;;;12.18;0.50;;;13.40;99.90;;;;;;4934256;29;20030;-90
2023/10/14 09:15:28;;;;;;;11.95;0.50;;;13.60;99.90;;;;;;4951689;29;20374;-89
2023/10/14 09:17:55;;;;;;;9.35;0.70;;;13.50;99.90;;;;;;4919012;29;20031;-90
2023/10/14 09:20:33;;;;;;;6.68;0.50;;;13.50;99.90;;;;;;4917427;29;20035;-89
2023/10/14 09:23:39;;;;;;;9.88;0.60;;;13.50;99.90;;;;;;4966709;28;20097;-89
2023/10/14 09:26:06;;;;;;;8.38;0.93;;;13.70;99.90;;;;;;4963318;28;20057;-90
2023/10/14 09:28:35;;;;;;;8.65;0.55;;;13.70;99.90;;;;;;4951585;28;20023;-88
2023/10/14 09:31:07;;;;;;;7.93;1.03;;;13.80;99.90;;;;;;4939429;28;20384;-90
2023/10/14 09:33:38;;;;;;;12.77;0.60;;;13.60;99.90;;;;;;4951465;28;20297;-89
2023/10/14 09:36:14;;;;;;;8.13;0.50;;;13.80;99.90;;;;;;4976833;28;20033;-90
2023/10/14 09:38:41;;;;;;;10.30;1.63;;;13.50;99.90;;;;;;4951433;28;20098;-88
2023/10/14 09:41:10;;;;;;;7.20;0.55;;;13.60;99.90;;;;;;4949990;28;20305;-89
2023/10/14 09:43:42;;;;;;;6.90;0.50;;;13.80;99.90;;;;;;4936731;28;20094;-90
2023/10/14 09:46:11;;;;;;;8.65;0.50;;;13.70;99.90;;;;;;4948179;28;20049;-89
2023/10/14 09:48:37;;;;;;;6.45;0.70;;;14.00;99.90;;;;;;4951548;28;20034;-91
2023/10/14 09:51:05;;;;;;;11.27;0.75;;;14.20;99.90;;;;;;4957827;28;20039;-91
2023/10/14 09:53:33;;;;;;;9.77;0.70;;;14.10;99.90;;;;;;4958571;28;20471;-90
2023/10/14 09:56:09;;;;;;;8.48;0.95;;;13.80;99.90;;;;;;4953212;28;20030;-91
2023/10/14 09:58:41;;;;;;;8.70;1.02;;;13.50;99.90;;;;;;4965369;28;20392;-90
2023/10/14 10:01:12;;;;;;;12.23;0.68;;;14.00;99.90;;;;;;4968090;28;20527;-91
2023/10/14 10:03:48;;;;;;;5.28;0.43;;;13.80;99.90;;;;;;4966279;28;20460;-90
2023/10/14 10:06:54;;;;;;;10.98;0.65;;;13.80;99.90;;;;;;4960107;28;20042;-88
2023/10/14 10:10:07;;;;;;;11.07;0.88;;;13.80;99.90;;;;;;4965363;28;20022;-89
2023/10/14 10:12:33;;;;;;;10.27;0.70;;;13.60;99.90;;;;;;4937752;28;21922;-89
2023/10/14 10:15:03;;;;;;;8.77;0.52;;;13.70;99.90;;;;;;4950098;28;20031;-88
2023/10/14 10:17:30;;;;;;;;;;;13.50;99.90;;;;;;4950311;28;20512;-87
2023/10/14 10:20:12;;;;;;;6.55;0.50;;;13.80;99.90;;;;;;4934404;28;20406;-88
2023/10/14 10:22:39;;;;;;;5.40;0.57;;;14.00;99.90;;;;;;4969682;28;20073;-90
2023/10/14 10:25:09;;;;;;;7.82;0.40;;;14.20;99.90;;;;;;4936308;28;20537;-88
2023/10/14 10:27:36;;;;;;;7.80;0.55;;;14.10;99.90;;;;;;4969608;28;20155;-85
2023/10/14 10:30:11;;;;;;;6.32;0.30;;;14.00;99.90;;;;;;4956676;28;20456;-89
2023/10/14 10:32:38;;;;;;;5.60;0.40;;;14.20;99.90;;;;;;4949756;28;20034;-86
2023/10/14 10:35:07;;;;;;;7.68;0.47;;;14.50;99.90;;;;;;4933656;28;20385;-87
2023/10/14 10:37:41;;;;;;;8.98;0.47;;;14.30;99.90;;;;;;4950291;28;20046;-89
2023/10/14 10:40:11;;;;;;;6.28;0.50;;;13.80;99.90;;;;;;4965276;28;20260;-89
2023/10/14 10:42:41;;;;;;;7.18;0.30;;;13.80;99.90;;;;;;4968447;28;20484;-88
2023/10/14 10:45:29;;;;;;;5.22;0.30;;;13.70;99.90;;;;;;4951928;28;20058;-88
2023/10/14 10:48:00;;;;;;;3.25;0.30;;;13.40;99.90;;;;;;4933934;28;20078;-84
2023/10/14 10:50:34;;;;;;;3.47;0.40;;;12.80;99.90;;;;;;4946414;28;20440;-86
2023/10/14 10:53:10;;;;;;;3.25;0.20;;;12.30;99.90;;;;;;4956265;28;20042;-88
2023/10/14 10:55:38;;;;;;;1.92;0.20;;;11.90;99.90;;;;;;4949248;28;20168;-88
2023/10/14 10:58:13;;;;;;;4.50;0.75;;;11.70;99.90;;;;;;4963178;28;20121;-88
2023/10/14 11:00:47;;;;;;;3.15;0.30;;;11.60;99.90;;;;;;4952815;28;20059;-87
2023/10/14 11:03:14;;;;;;;3.75;0.30;;;11.70;99.90;;;;;;4935408;28;20027;-88
2023/10/14 11:05:42;;;;;;;4.35;0.20;;;12.10;99.90;;;;;;4952360;28;20058;-87
2023/10/14 11:08:08;;;;;;;2.88;0.20;;;12.40;99.90;;;;;;4952855;28;20026;-87
2023/10/14 11:10:42;;;;;;;4.72;0.25;;;12.80;99.90;;;;;;4932822;28;20035;-88
2023/10/14 11:13:13;;;;;;;4.40;0.40;;;12.70;99.90;;;;;;4933051;28;20054;-87
2023/10/14 11:15:44;;;;;;;4.80;0.30;;;13.00;99.90;;;;;;4959441;28;20026;-87
2023/10/14 11:18:10;;;;;;;3.78;0.40;;;13.20;99.90;;;;;;4948175;28;20106;-89
2023/10/14 11:20:43;;;;;;;5.35;0.30;;;13.40;99.90;;;;;;4956525;28;20138;-89
2023/10/14 11:23:09;;;;;;;3.72;0.40;;;13.70;99.90;;;;;;4953213;28;20043;-89
2023/10/14 11:25:40;;;;;;;10.60;0.60;;;13.70;99.90;;;;;;4954474;28;20041;-90
2023/10/14 11:28:09;;;;;;;6.00;0.35;;;13.80;99.90;;;;;;4950266;28;20031;-90
2023/10/14 11:30:41;;;;;;;5.28;0.50;;;14.00;99.90;;;;;;4953506;28;20038;-90
2023/10/14 11:33:10;;;;;;;11.73;0.50;;;14.30;99.90;;;;;;4951474;28;20118;-88
2023/10/14 11:35:37;;;;;;;6.07;0.38;;;14.30;99.90;;;;;;4934391;28;20053;-88
2023/10/14 11:38:07;;;;;;;8.13;0.50;;;14.40;99.90;;;;;;4952371;28;20502;-87
2023/10/14 11:40:34;;;;;;;7.60;0.40;;;14.10;99.90;;;;;;4956038;28;20031;-86
2023/10/14 11:43:00;;;;;;;7.00;0.40;;;13.90;99.90;;;;;;4950969;28;20022;-90
2023/10/14 11:45:25;;;;;;;3.85;0.50;;;13.70;99.90;;;;;;4932007;28;20035;-87
2023/10/14 11:47:54;;;;;;;8.48;0.50;;;13.50;99.90;;;;;;4952697;28;20027;-85
2023/10/14 11:50:20;;;;;;;5.30;0.40;;;13.50;99.90;;;;;;4959779;28;20027;-89
2023/10/14 11:52:53;;;;;;;3.72;0.40;;;13.30;99.90;;;;;;4933796;28;20045;-88
2023/10/14 11:55:20;;;;;;;5.03;0.32;;;13.00;99.90;;;;;;4933641;28;20031;-89
2023/10/14 11:57:48;;;;;;;3.05;0.20;;;13.10;99.90;;;;;;4947616;28;20443;-87
2023/10/14 12:00:20;;;;;;;3.95;0.50;;;13.10;99.90;;;;;;4951264;28;20550;-89
2023/10/14 12:02:46;;;;;;;4.88;0.30;;;13.10;99.90;;;;;;4935637;28;20071;-89
2023/10/14 12:05:13;;;;;;;3.08;0.30;;;13.10;99.90;;;;;;4950676;28;20093;-89
2023/10/14 12:07:51;;;;;;;2.28;0.20;;;13.10;99.90;;;;;;4950853;28;20035;-86
2023/10/14 12:10:17;;;;;;;4.20;0.20;;;13.10;99.90;;;;;;4931715;28;20039;-89
2023/10/14 12:12:52;;;;;;;4.90;0.40;;;13.20;99.90;;;;;;4935073;28;20038;-87
2023/10/14 12:15:20;;;;;;;5.05;0.30;;;13.40;99.90;;;;;;4962833;28;20057;-88
2023/10/14 12:17:46;;;;;;;3.58;0.30;;;13.70;99.90;;;;;;4957869;28;20030;-87
2023/10/14 12:20:12;;;;;;;5.70;0.30;;;14.00;99.90;;;;;;4934562;28;20117;-86
2023/10/14 12:22:39;;;;;;;7.15;1.15;;;14.00;99.90;;;;;;4932702;28;20162;-89
2023/10/14 12:25:05;;;;;;;7.57;0.70;;;13.80;99.90;;;;;;4933968;28;20035;-89
2023/10/14 12:27:33;;;;;;;6.70;0.40;;;13.60;99.90;;;;;;4933355;28;20030;-89
2023/10/14 12:30:06;;;;;;;3.05;0.30;;;13.70;99.90;;;;;;4947685;28;20026;-88
2023/10/14 12:32:32;;;;;;;7.40;0.40;;;13.50;99.90;;;;;;4955279;28;20591;-88
2023/10/14 12:34:59;;;;;;;6.50;0.50;;;13.60;99.90;;;;;;4934120;28;20472;-89
2023/10/14 12:37:26;;;;;;;3.45;0.30;;;13.90;99.90;;;;;;4949671;28;20035;-87
2023/10/14 12:42:49;;;;;;;7.28;0.50;;;14.20;99.90;;;;;;4942668;28;20043;-88
2023/10/14 12:45:25;;;;;;;5.78;0.30;;;14.10;99.90;;;;;;4933112;28;20019;-90
2023/10/14 12:47:56;;;;;;;5.05;0.20;;;13.10;99.90;;;;;;4934956;28;20373;-87
2023/10/14 12:50:22;;;;;;;2.33;0.30;;;12.30;99.90;;;;;;4948100;28;20045;-90
2023/10/14 12:52:50;;;;;;;3.33;0.28;;;11.80;99.90;;;;;;4949279;28;20053;-88
2023/10/14 12:55:22;;;;;;;4.18;0.30;;;11.80;99.90;;;;;;4952591;28;20098;-89
2023/10/14 12:57:51;;;;;;;3.50;0.28;;;11.70;99.90;;;;;;4932964;28;20042;-88
2023/10/14 13:00:29;;;;;;;5.55;0.30;;;11.80;99.90;;;;;;4973195;28;20032;-89
2023/10/14 13:02:56;;;;;;;4.15;0.60;;;11.90;99.90;;;;;;4957435;28;20041;-89
2023/10/14 13:05:23;;;;;;;4.07;0.38;;;11.90;99.90;;;;;;4952634;28;20076;-88
2023/10/14 13:07:55;;;;;;;4.97;0.30;;;11.90;99.90;;;;;;4934271;28;20509;-88
2023/10/14 13:10:25;;;;;;;4.15;0.40;;;11.90;99.90;;;;;;4948430;28;20024;-90
2023/10/14 13:12:57;;;;;;;7.93;0.73;;;12.10;99.90;;;;;;4946216;28;20109;-87
2023/10/14 13:15:30;;;;;;;6.70;0.35;;;12.50;99.90;;;;;;4959221;28;20034;-87
2023/10/14 13:17:59;;;;;;;8.60;0.40;;;12.80;99.90;;;;;;4955258;28;20369;-87
2023/10/14 13:20:29;;;;;;;8.23;0.38;;;13.00;99.90;;;;;;4952666;28;20125;-87
2023/10/14 13:23:07;;;;;;;6.65;0.40;;;13.30;99.90;;;;;;4936690;28;20129;-87
2023/10/14 13:25:37;;;;;;;6.53;0.40;;;13.40;99.90;;;;;;4952988;28;20134;-88
2023/10/14 13:28:08;;;;;;;;;;;13.50;99.90;;;;;;4938782;28;20031;-88
2023/10/14 13:30:45;;;;;;;6.80;0.30;;;13.00;99.90;;;;;;4965750;28;19910;-88